Breslau, Texas
Current Conditions -  °F | °C
As of 10:55 AM on Monday 22 Dec 2014 (Local Time) from K66R Reporting Station
Overcast Overcast  
Wind Chill: 64°   Ceiling: 1600
Heat Index: 64°   Visibility: 10mi
Dew Point: 58°   Wind: 8mph
Humidity: 80%   Direction: 250°WSW
Pressure: 29.76"   Gusts: NA
Location:  29.3984°N, 96.8256°W
Report Text: K66R 221655Z AUTO 25007KT 10SM OVC016 18/15 A2976 RMK AO2 T01800145
Loading
Personal Weather Stations






























Interactive Weather Map New forecast layout! Learn more

10-Day Weather Forecast

Advertisements
Track Severe Weather on mobile